createdAt,value
2019-04-03T00:02:27.430Z,133.80
2019-04-03T00:04:58.942Z,139.60
2019-04-03T00:07:30.863Z,131.80
2019-04-03T00:10:02.409Z,127.00
2019-04-03T00:12:34.347Z,132.80
2019-04-03T00:15:06.935Z,134.00
2019-04-03T00:17:38.646Z,133.40
2019-04-03T00:20:10.564Z,135.20
2019-04-03T00:22:42.292Z,135.00
2019-04-03T00:25:13.969Z,136.80
2019-04-03T00:27:45.543Z,144.00
2019-04-03T00:30:17.389Z,136.80
2019-04-03T00:32:49.133Z,146.20
2019-04-03T00:35:23.151Z,139.00
2019-04-03T00:37:54.125Z,145.20
2019-04-03T00:40:25.950Z,138.80
2019-04-03T00:42:58.706Z,140.60
2019-04-03T00:45:30.557Z,137.00
2019-04-03T00:48:02.598Z,139.20
2019-04-03T00:50:34.296Z,136.60
2019-04-03T00:53:05.847Z,140.00
2019-04-03T00:55:37.732Z,147.20
2019-04-03T00:58:37.531Z,137.80
2019-04-03T01:01:11.598Z,152.40
2019-04-03T01:03:44.112Z,140.00
2019-04-03T01:06:15.911Z,145.60
2019-04-03T01:08:47.546Z,140.20
2019-04-03T01:11:19.638Z,136.80
2019-04-03T01:13:52.274Z,142.00
2019-04-03T01:16:24.184Z,151.00
2019-04-03T01:18:55.934Z,135.00
2019-04-03T01:21:28.126Z,140.80
2019-04-03T01:23:59.652Z,146.20
2019-04-03T01:26:31.619Z,158.80
2019-04-03T01:29:03.621Z,154.60
2019-04-03T01:31:35.267Z,155.60
2019-04-03T01:34:06.814Z,170.00
2019-04-03T01:36:38.618Z,144.75
2019-04-03T01:39:10.275Z,170.75
2019-04-03T01:41:41.908Z,180.50
2019-04-03T01:44:14.053Z,166.50
2019-04-03T01:46:45.872Z,159.50
2019-04-03T01:49:17.481Z,144.50
2019-04-03T01:51:49.087Z,145.50
2019-04-03T01:54:20.944Z,149.80
2019-04-03T01:56:52.364Z,148.50
2019-04-03T01:59:24.362Z,159.50
2019-04-03T02:01:57.384Z,167.75
2019-04-03T02:04:29.172Z,165.75
2019-04-03T02:07:00.945Z,129.00
2019-04-03T02:09:32.593Z,159.80
2019-04-03T02:12:04.744Z,163.25
2019-04-03T02:14:36.709Z,152.00
2019-04-03T02:17:08.421Z,165.75
2019-04-03T02:19:40.451Z,147.40
2019-04-03T02:22:11.972Z,154.75
2019-04-03T02:24:43.624Z,163.75
2019-04-03T02:27:15.287Z,151.75
2019-04-03T02:29:47.105Z,152.60
2019-04-03T02:32:18.879Z,147.50
2019-04-03T02:34:50.712Z,153.40
2019-04-03T02:37:22.243Z,167.00
2019-04-03T02:39:54.082Z,158.00
2019-04-03T02:42:25.940Z,156.75
2019-04-03T02:44:58.355Z,152.20
2019-04-03T02:47:32.934Z,150.00
2019-04-03T02:50:03.775Z,149.00
2019-04-03T02:52:35.568Z,137.80
2019-04-03T02:55:08.429Z,137.20
2019-04-03T02:57:40.966Z,135.80
2019-04-03T03:00:12.699Z,141.20
2019-04-03T03:02:45.751Z,129.20
2019-04-03T03:05:18.056Z,128.20
2019-04-03T03:07:49.825Z,130.80
2019-04-03T03:10:21.601Z,120.40
2019-04-03T03:12:53.289Z,127.00
2019-04-03T03:15:25.775Z,122.40
2019-04-03T03:17:58.292Z,136.20
2019-04-03T03:20:31.404Z,133.20
2019-04-03T03:23:03.705Z,128.00
2019-04-03T03:25:35.900Z,132.80
2019-04-03T03:28:08.963Z,135.40
2019-04-03T03:30:46.640Z,122.40
2019-04-03T03:33:33.220Z,118.40
2019-04-03T03:35:51.757Z,117.80
2019-04-03T03:38:27.256Z,129.60
2019-04-03T03:40:59.289Z,126.80
2019-04-03T03:43:32.111Z,132.00
2019-04-03T03:46:04.298Z,124.20
2019-04-03T03:48:37.094Z,120.00
2019-04-03T03:51:08.704Z,113.80
2019-04-03T03:53:44.076Z,100.40
2019-04-03T03:56:14.649Z,93.20
2019-04-03T03:58:46.868Z,96.20
2019-04-03T04:01:19.152Z,72.40
2019-04-03T04:03:52.351Z,80.20
2019-04-03T04:06:28.231Z,67.00
2019-04-03T04:09:00.690Z,71.20
2019-04-03T04:11:34.209Z,72.20
2019-04-03T04:14:06.192Z,65.20
2019-04-03T04:16:38.484Z,63.80
2019-04-03T04:19:10.244Z,68.60
2019-04-03T04:21:45.033Z,77.40
2019-04-03T04:24:18.447Z,83.80
2019-04-03T04:26:50.651Z,81.40
2019-04-03T04:29:22.482Z,90.60
2019-04-03T04:32:10.249Z,82.40
2019-04-03T04:34:42.653Z,70.20
2019-04-03T04:37:14.252Z,63.60
2019-04-03T04:39:46.398Z,67.80
2019-04-03T04:42:18.318Z,68.20
2019-04-03T04:44:50.284Z,64.60
2019-04-03T04:47:23.477Z,60.40
2019-04-03T04:49:55.418Z,61.60
2019-04-03T04:52:27.624Z,63.80
2019-04-03T04:55:02.001Z,55.80
2019-04-03T04:57:34.538Z,57.60
2019-04-03T05:00:07.178Z,53.20
2019-04-03T05:02:39.071Z,58.40
